Aviation Digital Data Service (ADDS)

Output produced by TAFs form (0503 UTC 27 July 2017)
found at http://www.aviationweather.gov/adds/tafs/
 
KMKT 262334Z 2700/2724 35006KT P6SM SCT200 
     FM271400 02006KT P6SM SCT050
       
KRST 262321Z 2700/2724 36005KT P6SM SCT020 
     FM270800 36005KT 4SM BR SKC 
     FM271300 01006KT P6SM SKC 
     FM271800 02009KT P6SM SCT040
       
KMSP 270305Z 2703/2806 35003KT P6SM FEW250 
     FM271700 01006KT P6SM SCT050